sensor_id;sensor_type;location;lat;lon;timestamp;P1;durP1;ratioP1;P2;durP2;ratioP2
5499;SDS011;2772;42.700;23.304;2023-08-08T00:01:05;1.80;;;1.67;;
5499;SDS011;2772;42.700;23.304;2023-08-08T00:03:32;1.40;;;1.30;;
5499;SDS011;2772;42.700;23.304;2023-08-08T00:06:01;1.07;;;0.93;;
5499;SDS011;2772;42.700;23.304;2023-08-08T00:08:27;1.30;;;1.20;;
5499;SDS011;2772;42.700;23.304;2023-08-08T00:10:54;1.70;;;1.40;;
5499;SDS011;2772;42.700;23.304;2023-08-08T00:13:21;1.50;;;1.40;;
5499;SDS011;2772;42.700;23.304;2023-08-08T00:15:48;1.30;;;1.20;;
5499;SDS011;2772;42.700;23.304;2023-08-08T00:18:15;1.37;;;1.27;;
5499;SDS011;2772;42.700;23.304;2023-08-08T00:20:41;1.40;;;1.23;;
5499;SDS011;2772;42.700;23.304;2023-08-08T00:23:10;1.40;;;1.30;;
5499;SDS011;2772;42.700;23.304;2023-08-08T00:25:36;1.43;;;1.33;;
5499;SDS011;2772;42.700;23.304;2023-08-08T00:28:03;1.63;;;1.30;;
5499;SDS011;2772;42.700;23.304;2023-08-08T00:30:30;2.50;;;1.60;;
5499;SDS011;2772;42.700;23.304;2023-08-08T00:32:57;1.30;;;1.20;;
5499;SDS011;2772;42.700;23.304;2023-08-08T00:35:24;2.17;;;1.73;;
5499;SDS011;2772;42.700;23.304;2023-08-08T00:37:50;1.57;;;1.40;;
5499;SDS011;2772;42.700;23.304;2023-08-08T00:40:19;1.50;;;1.40;;
5499;SDS011;2772;42.700;23.304;2023-08-08T00:42:45;1.70;;;1.60;;
5499;SDS011;2772;42.700;23.304;2023-08-08T00:45:12;1.27;;;1.17;;
5499;SDS011;2772;42.700;23.304;2023-08-08T00:47:39;1.93;;;1.70;;
5499;SDS011;2772;42.700;23.304;2023-08-08T00:50:06;1.80;;;1.70;;
5499;SDS011;2772;42.700;23.304;2023-08-08T00:52:35;2.77;;;2.40;;
5499;SDS011;2772;42.700;23.304;2023-08-08T00:55:02;3.03;;;2.73;;
5499;SDS011;2772;42.700;23.304;2023-08-08T00:57:31;2.30;;;2.10;;
5499;SDS011;2772;42.700;23.304;2023-08-08T00:59:59;2.90;;;2.70;;
5499;SDS011;2772;42.700;23.304;2023-08-08T01:02:28;1.93;;;1.83;;
5499;SDS011;2772;42.700;23.304;2023-08-08T01:04:54;2.43;;;2.23;;
5499;SDS011;2772;42.700;23.304;2023-08-08T01:07:23;3.10;;;1.87;;
5499;SDS011;2772;42.700;23.304;2023-08-08T01:09:58;1.90;;;1.80;;
5499;SDS011;2772;42.700;23.304;2023-08-08T01:12:33;1.77;;;1.67;;
5499;SDS011;2772;42.700;23.304;2023-08-08T01:15:06;1.70;;;1.60;;
5499;SDS011;2772;42.700;23.304;2023-08-08T01:17:35;3.63;;;1.87;;
5499;SDS011;2772;42.700;23.304;2023-08-08T01:20:03;1.97;;;1.87;;
5499;SDS011;2772;42.700;23.304;2023-08-08T01:22:32;1.93;;;1.60;;
5499;SDS011;2772;42.700;23.304;2023-08-08T01:25:06;2.90;;;1.63;;
5499;SDS011;2772;42.700;23.304;2023-08-08T01:27:35;1.70;;;1.60;;
5499;SDS011;2772;42.700;23.304;2023-08-08T01:30:03;2.80;;;1.60;;
5499;SDS011;2772;42.700;23.304;2023-08-08T01:32:37;4.80;;;1.73;;
5499;SDS011;2772;42.700;23.304;2023-08-08T01:35:05;2.17;;;1.70;;
5499;SDS011;2772;42.700;23.304;2023-08-08T01:37:35;2.03;;;1.73;;
5499;SDS011;2772;42.700;23.304;2023-08-08T01:40:08;1.70;;;1.60;;
5499;SDS011;2772;42.700;23.304;2023-08-08T01:42:36;1.60;;;1.50;;
5499;SDS011;2772;42.700;23.304;2023-08-08T01:45:04;1.87;;;1.77;;
5499;SDS011;2772;42.700;23.304;2023-08-08T01:47:31;3.40;;;1.70;;
5499;SDS011;2772;42.700;23.304;2023-08-08T01:49:58;1.70;;;1.60;;
5499;SDS011;2772;42.700;23.304;2023-08-08T01:52:25;1.67;;;1.57;;
5499;SDS011;2772;42.700;23.304;2023-08-08T01:54:52;1.70;;;1.60;;
5499;SDS011;2772;42.700;23.304;2023-08-08T01:57:20;2.03;;;1.43;;
5499;SDS011;2772;42.700;23.304;2023-08-08T01:59:47;1.87;;;1.77;;
5499;SDS011;2772;42.700;23.304;2023-08-08T02:02:15;2.10;;;1.90;;
5499;SDS011;2772;42.700;23.304;2023-08-08T02:04:42;2.20;;;1.97;;
5499;SDS011;2772;42.700;23.304;2023-08-08T02:07:09;11.17;;;3.00;;
5499;SDS011;2772;42.700;23.304;2023-08-08T02:09:36;2.80;;;2.20;;
5499;SDS011;2772;42.700;23.304;2023-08-08T02:12:03;2.20;;;2.10;;
5499;SDS011;2772;42.700;23.304;2023-08-08T02:14:32;2.93;;;2.63;;
5499;SDS011;2772;42.700;23.304;2023-08-08T02:16:58;3.40;;;2.00;;
5499;SDS011;2772;42.700;23.304;2023-08-08T02:19:25;2.63;;;2.43;;
5499;SDS011;2772;42.700;23.304;2023-08-08T02:21:52;2.13;;;2.03;;
5499;SDS011;2772;42.700;23.304;2023-08-08T02:24:18;2.10;;;2.00;;
5499;SDS011;2772;42.700;23.304;2023-08-08T02:26:45;2.30;;;2.10;;
5499;SDS011;2772;42.700;23.304;2023-08-08T02:29:12;1.80;;;1.70;;
5499;SDS011;2772;42.700;23.304;2023-08-08T02:31:40;2.37;;;2.27;;
5499;SDS011;2772;42.700;23.304;2023-08-08T02:34:07;4.10;;;2.60;;
5499;SDS011;2772;42.700;23.304;2023-08-08T02:36:33;2.67;;;2.23;;
5499;SDS011;2772;42.700;23.304;2023-08-08T02:39:00;2.50;;;2.30;;
5499;SDS011;2772;42.700;23.304;2023-08-08T02:41:28;2.40;;;2.20;;
5499;SDS011;2772;42.700;23.304;2023-08-08T02:43:55;3.00;;;2.77;;
5499;SDS011;2772;42.700;23.304;2023-08-08T02:46:21;2.50;;;2.40;;
5499;SDS011;2772;42.700;23.304;2023-08-08T02:48:49;2.57;;;2.37;;
5499;SDS011;2772;42.700;23.304;2023-08-08T02:51:16;3.17;;;2.87;;
5499;SDS011;2772;42.700;23.304;2023-08-08T02:53:43;6.23;;;2.53;;
5499;SDS011;2772;42.700;23.304;2023-08-08T02:56:10;2.83;;;2.63;;
5499;SDS011;2772;42.700;23.304;2023-08-08T02:58:36;3.13;;;3.00;;
5499;SDS011;2772;42.700;23.304;2023-08-08T03:01:03;3.43;;;3.13;;
5499;SDS011;2772;42.700;23.304;2023-08-08T03:03:30;3.27;;;3.07;;
5499;SDS011;2772;42.700;23.304;2023-08-08T03:05:58;3.33;;;3.13;;
5499;SDS011;2772;42.700;23.304;2023-08-08T03:08:25;3.27;;;2.97;;
5499;SDS011;2772;42.700;23.304;2023-08-08T03:10:52;3.40;;;3.20;;
5499;SDS011;2772;42.700;23.304;2023-08-08T03:13:19;3.37;;;3.17;;
5499;SDS011;2772;42.700;23.304;2023-08-08T03:15:47;3.40;;;3.10;;
5499;SDS011;2772;42.700;23.304;2023-08-08T03:18:14;3.10;;;2.90;;
5499;SDS011;2772;42.700;23.304;2023-08-08T03:20:41;3.63;;;3.43;;
5499;SDS011;2772;42.700;23.304;2023-08-08T03:23:09;3.97;;;3.67;;
5499;SDS011;2772;42.700;23.304;2023-08-08T03:25:35;3.40;;;3.20;;
5499;SDS011;2772;42.700;23.304;2023-08-08T03:28:02;5.90;;;3.43;;
5499;SDS011;2772;42.700;23.304;2023-08-08T03:30:29;6.03;;;3.40;;
5499;SDS011;2772;42.700;23.304;2023-08-08T03:32:56;8.70;;;4.40;;
5499;SDS011;2772;42.700;23.304;2023-08-08T03:35:23;8.73;;;4.30;;
5499;SDS011;2772;42.700;23.304;2023-08-08T03:37:50;5.03;;;4.10;;
5499;SDS011;2772;42.700;23.304;2023-08-08T03:40:18;10.53;;;4.00;;
5499;SDS011;2772;42.700;23.304;2023-08-08T03:42:45;4.83;;;4.43;;
5499;SDS011;2772;42.700;23.304;2023-08-08T03:45:11;7.47;;;4.67;;
5499;SDS011;2772;42.700;23.304;2023-08-08T03:47:38;6.00;;;4.90;;
5499;SDS011;2772;42.700;23.304;2023-08-08T03:50:06;7.03;;;5.23;;
5499;SDS011;2772;42.700;23.304;2023-08-08T03:52:34;5.60;;;5.00;;
5499;SDS011;2772;42.700;23.304;2023-08-08T03:55:02;8.47;;;5.50;;
5499;SDS011;2772;42.700;23.304;2023-08-08T03:57:31;11.03;;;4.90;;
5499;SDS011;2772;42.700;23.304;2023-08-08T03:59:58;4.83;;;4.43;;
5499;SDS011;2772;42.700;23.304;2023-08-08T04:02:25;6.10;;;5.20;;
5499;SDS011;2772;42.700;23.304;2023-08-08T04:04:53;5.20;;;4.80;;
5499;SDS011;2772;42.700;23.304;2023-08-08T04:07:20;6.30;;;5.43;;
5499;SDS011;2772;42.700;23.304;2023-08-08T04:09:46;7.20;;;5.10;;
5499;SDS011;2772;42.700;23.304;2023-08-08T04:12:13;9.17;;;5.30;;
5499;SDS011;2772;42.700;23.304;2023-08-08T04:46:06;7.80;;;5.80;;
5499;SDS011;2772;42.700;23.304;2023-08-08T04:48:35;20.67;;;5.70;;
5499;SDS011;2772;42.700;23.304;2023-08-08T04:51:04;6.57;;;5.97;;
5499;SDS011;2772;42.700;23.304;2023-08-08T04:53:31;7.33;;;5.37;;
5499;SDS011;2772;42.700;23.304;2023-08-08T04:55:58;6.50;;;6.00;;
5499;SDS011;2772;42.700;23.304;2023-08-08T04:58:24;11.90;;;6.67;;
5499;SDS011;2772;42.700;23.304;2023-08-08T05:00:51;10.00;;;6.33;;
5499;SDS011;2772;42.700;23.304;2023-08-08T05:03:21;8.70;;;5.87;;
5499;SDS011;2772;42.700;23.304;2023-08-08T05:05:48;11.30;;;7.20;;
5499;SDS011;2772;42.700;23.304;2023-08-08T05:08:15;16.83;;;5.80;;
5499;SDS011;2772;42.700;23.304;2023-08-08T05:10:41;6.30;;;5.70;;
5499;SDS011;2772;42.700;23.304;2023-08-08T05:13:08;8.40;;;5.40;;
5499;SDS011;2772;42.700;23.304;2023-08-08T05:15:35;8.20;;;6.20;;
5499;SDS011;2772;42.700;23.304;2023-08-08T05:18:02;6.80;;;4.77;;
5499;SDS011;2772;42.700;23.304;2023-08-08T05:20:31;6.30;;;5.10;;
5499;SDS011;2772;42.700;23.304;2023-08-08T05:22:58;5.20;;;4.80;;
5499;SDS011;2772;42.700;23.304;2023-08-08T05:25:24;5.70;;;4.57;;
5499;SDS011;2772;42.700;23.304;2023-08-08T05:27:51;4.77;;;4.30;;
5499;SDS011;2772;42.700;23.304;2023-08-08T05:30:18;4.20;;;3.90;;
5499;SDS011;2772;42.700;23.304;2023-08-08T05:32:45;6.40;;;5.13;;
5499;SDS011;2772;42.700;23.304;2023-08-08T05:35:12;5.20;;;4.70;;
5499;SDS011;2772;42.700;23.304;2023-08-08T05:37:41;9.60;;;4.23;;
5499;SDS011;2772;42.700;23.304;2023-08-08T05:40:08;4.10;;;3.90;;
5499;SDS011;2772;42.700;23.304;2023-08-08T05:42:35;7.40;;;4.07;;
5499;SDS011;2772;42.700;23.304;2023-08-08T05:45:02;4.83;;;4.43;;
5499;SDS011;2772;42.700;23.304;2023-08-08T05:47:29;4.10;;;3.80;;
5499;SDS011;2772;42.700;23.304;2023-08-08T05:49:56;5.10;;;4.20;;
5499;SDS011;2772;42.700;23.304;2023-08-08T05:52:23;5.33;;;4.90;;
5499;SDS011;2772;42.700;23.304;2023-08-08T05:54:51;5.83;;;5.23;;
5499;SDS011;2772;42.700;23.304;2023-08-08T05:57:17;9.50;;;4.80;;
5499;SDS011;2772;42.700;23.304;2023-08-08T05:59:44;4.20;;;3.97;;
5499;SDS011;2772;42.700;23.304;2023-08-08T06:02:11;8.73;;;5.37;;
5499;SDS011;2772;42.700;23.304;2023-08-08T06:04:37;16.30;;;8.57;;
5499;SDS011;2772;42.700;23.304;2023-08-08T06:07:04;8.30;;;7.47;;
5499;SDS011;2772;42.700;23.304;2023-08-08T06:09:32;5.73;;;5.23;;
5499;SDS011;2772;42.700;23.304;2023-08-08T06:12:00;8.13;;;4.77;;
5499;SDS011;2772;42.700;23.304;2023-08-08T06:14:26;13.93;;;5.73;;
5499;SDS011;2772;42.700;23.304;2023-08-08T06:16:53;6.93;;;5.03;;
5499;SDS011;2772;42.700;23.304;2023-08-08T06:19:20;4.90;;;4.40;;
5499;SDS011;2772;42.700;23.304;2023-08-08T06:21:47;10.20;;;5.00;;
5499;SDS011;2772;42.700;23.304;2023-08-08T06:24:14;7.37;;;5.20;;
5499;SDS011;2772;42.700;23.304;2023-08-08T06:26:40;16.70;;;6.20;;
5499;SDS011;2772;42.700;23.304;2023-08-08T06:29:09;8.13;;;5.43;;
5499;SDS011;2772;42.700;23.304;2023-08-08T06:31:36;11.17;;;6.03;;
5499;SDS011;2772;42.700;23.304;2023-08-08T06:34:03;18.88;;;9.45;;
5499;SDS011;2772;42.700;23.304;2023-08-08T06:36:29;11.03;;;8.90;;
5499;SDS011;2772;42.700;23.304;2023-08-08T06:38:56;5.50;;;5.00;;
5499;SDS011;2772;42.700;23.304;2023-08-08T06:41:23;8.30;;;4.50;;
5499;SDS011;2772;42.700;23.304;2023-08-08T06:43:49;27.67;;;16.20;;
5499;SDS011;2772;42.700;23.304;2023-08-08T06:46:19;5.30;;;4.90;;
5499;SDS011;2772;42.700;23.304;2023-08-08T06:48:46;7.97;;;5.77;;
5499;SDS011;2772;42.700;23.304;2023-08-08T06:51:13;6.87;;;4.73;;
5499;SDS011;2772;42.700;23.304;2023-08-08T06:53:40;7.63;;;3.60;;
5499;SDS011;2772;42.700;23.304;2023-08-08T06:56:07;11.40;;;5.90;;
5499;SDS011;2772;42.700;23.304;2023-08-08T06:58:34;43.60;;;4.97;;
5499;SDS011;2772;42.700;23.304;2023-08-08T07:01:02;3.17;;;2.97;;
5499;SDS011;2772;42.700;23.304;2023-08-08T07:03:30;5.70;;;3.87;;
5499;SDS011;2772;42.700;23.304;2023-08-08T07:05:57;12.10;;;3.00;;
5499;SDS011;2772;42.700;23.304;2023-08-08T07:08:25;22.83;;;3.87;;
5499;SDS011;2772;42.700;23.304;2023-08-08T07:10:52;6.50;;;3.47;;
5499;SDS011;2772;42.700;23.304;2023-08-08T07:13:19;6.00;;;3.33;;
5499;SDS011;2772;42.700;23.304;2023-08-08T07:15:46;3.53;;;3.23;;
5499;SDS011;2772;42.700;23.304;2023-08-08T07:18:13;4.03;;;3.00;;
5499;SDS011;2772;42.700;23.304;2023-08-08T07:20:42;7.70;;;3.10;;
5499;SDS011;2772;42.700;23.304;2023-08-08T07:23:09;7.80;;;3.10;;
5499;SDS011;2772;42.700;23.304;2023-08-08T07:25:36;3.23;;;3.03;;
5499;SDS011;2772;42.700;23.304;2023-08-08T07:28:03;5.77;;;2.73;;
5499;SDS011;2772;42.700;23.304;2023-08-08T07:30:30;2.10;;;2.00;;
5499;SDS011;2772;42.700;23.304;2023-08-08T07:32:56;3.03;;;2.83;;
5499;SDS011;2772;42.700;23.304;2023-08-08T07:35:23;3.50;;;3.20;;
5499;SDS011;2772;42.700;23.304;2023-08-08T07:37:51;10.83;;;2.40;;
5499;SDS011;2772;42.700;23.304;2023-08-08T07:40:19;4.03;;;2.97;;
5499;SDS011;2772;42.700;23.304;2023-08-08T07:42:47;3.13;;;2.93;;
5499;SDS011;2772;42.700;23.304;2023-08-08T07:45:15;7.90;;;3.80;;
5499;SDS011;2772;42.700;23.304;2023-08-08T07:47:42;5.60;;;2.80;;
5499;SDS011;2772;42.700;23.304;2023-08-08T07:50:09;5.50;;;3.20;;
5499;SDS011;2772;42.700;23.304;2023-08-08T07:52:36;2.83;;;2.60;;
5499;SDS011;2772;42.700;23.304;2023-08-08T07:55:05;2.17;;;1.97;;
5499;SDS011;2772;42.700;23.304;2023-08-08T07:57:33;3.43;;;3.17;;
5499;SDS011;2772;42.700;23.304;2023-08-08T07:59:59;3.20;;;2.60;;
5499;SDS011;2772;42.700;23.304;2023-08-08T08:02:32;2.00;;;1.90;;
5499;SDS011;2772;42.700;23.304;2023-08-08T08:04:59;6.83;;;2.50;;
5499;SDS011;2772;42.700;23.304;2023-08-08T08:07:26;4.70;;;2.00;;
5499;SDS011;2772;42.700;23.304;2023-08-08T08:09:53;1.80;;;1.70;;
5499;SDS011;2772;42.700;23.304;2023-08-08T08:12:21;1.87;;;1.77;;
5499;SDS011;2772;42.700;23.304;2023-08-08T08:14:47;7.50;;;2.70;;
5499;SDS011;2772;42.700;23.304;2023-08-08T08:17:15;3.30;;;2.27;;
5499;SDS011;2772;42.700;23.304;2023-08-08T08:19:41;3.00;;;2.80;;
5499;SDS011;2772;42.700;23.304;2023-08-08T08:22:08;2.80;;;2.70;;
5499;SDS011;2772;42.700;23.304;2023-08-08T08:24:35;2.40;;;2.30;;
5499;SDS011;2772;42.700;23.304;2023-08-08T08:27:02;8.70;;;2.77;;
5499;SDS011;2772;42.700;23.304;2023-08-08T08:29:30;5.10;;;2.33;;
5499;SDS011;2772;42.700;23.304;2023-08-08T08:31:58;3.97;;;2.93;;
5499;SDS011;2772;42.700;23.304;2023-08-08T08:34:24;3.00;;;2.80;;
5499;SDS011;2772;42.700;23.304;2023-08-08T08:36:51;7.70;;;3.33;;
5499;SDS011;2772;42.700;23.304;2023-08-08T08:39:18;2.70;;;2.50;;
5499;SDS011;2772;42.700;23.304;2023-08-08T08:41:46;3.63;;;3.00;;
5499;SDS011;2772;42.700;23.304;2023-08-08T08:44:18;3.67;;;2.13;;
5499;SDS011;2772;42.700;23.304;2023-08-08T08:46:49;11.57;;;3.70;;
5499;SDS011;2772;42.700;23.304;2023-08-08T08:49:18;2.70;;;2.50;;
5499;SDS011;2772;42.700;23.304;2023-08-08T08:51:48;7.10;;;2.93;;
5499;SDS011;2772;42.700;23.304;2023-08-08T08:54:14;4.67;;;3.10;;
5499;SDS011;2772;42.700;23.304;2023-08-08T08:56:42;2.47;;;2.37;;
5499;SDS011;2772;42.700;23.304;2023-08-08T08:59:09;2.90;;;2.53;;
5499;SDS011;2772;42.700;23.304;2023-08-08T09:01:35;4.23;;;2.70;;
5499;SDS011;2772;42.700;23.304;2023-08-08T09:04:04;4.17;;;3.20;;
5499;SDS011;2772;42.700;23.304;2023-08-08T09:06:34;3.53;;;3.23;;
5499;SDS011;2772;42.700;23.304;2023-08-08T09:09:04;3.60;;;3.40;;
5499;SDS011;2772;42.700;23.304;2023-08-08T09:11:31;4.33;;;2.97;;
5499;SDS011;2772;42.700;23.304;2023-08-08T09:13:58;2.93;;;2.40;;
5499;SDS011;2772;42.700;23.304;2023-08-08T09:16:25;6.47;;;3.10;;
5499;SDS011;2772;42.700;23.304;2023-08-08T09:18:52;3.70;;;2.70;;
5499;SDS011;2772;42.700;23.304;2023-08-08T09:21:20;2.53;;;2.33;;
5499;SDS011;2772;42.700;23.304;2023-08-08T09:23:47;7.40;;;2.83;;
5499;SDS011;2772;42.700;23.304;2023-08-08T09:26:14;3.23;;;3.03;;
5499;SDS011;2772;42.700;23.304;2023-08-08T09:28:41;3.20;;;2.60;;
5499;SDS011;2772;42.700;23.304;2023-08-08T09:31:08;8.33;;;7.50;;
5499;SDS011;2772;42.700;23.304;2023-08-08T09:33:38;3.13;;;3.00;;
5499;SDS011;2772;42.700;23.304;2023-08-08T09:36:05;3.53;;;3.07;;
5499;SDS011;2772;42.700;23.304;2023-08-08T09:38:34;7.83;;;3.30;;
5499;SDS011;2772;42.700;23.304;2023-08-08T09:41:00;10.03;;;3.37;;
5499;SDS011;2772;42.700;23.304;2023-08-08T09:43:27;3.40;;;3.07;;
5499;SDS011;2772;42.700;23.304;2023-08-08T09:45:55;6.50;;;4.23;;
5499;SDS011;2772;42.700;23.304;2023-08-08T09:48:22;9.00;;;6.10;;
5499;SDS011;2772;42.700;23.304;2023-08-08T09:50:50;3.07;;;2.87;;
5499;SDS011;2772;42.700;23.304;2023-08-08T09:53:16;3.47;;;3.17;;
5499;SDS011;2772;42.700;23.304;2023-08-08T09:55:47;3.93;;;3.63;;
5499;SDS011;2772;42.700;23.304;2023-08-08T09:58:14;4.80;;;2.90;;
5499;SDS011;2772;42.700;23.304;2023-08-08T10:00:41;3.07;;;2.87;;
5499;SDS011;2772;42.700;23.304;2023-08-08T10:03:09;3.77;;;3.53;;
5499;SDS011;2772;42.700;23.304;2023-08-08T10:05:36;4.90;;;3.40;;
5499;SDS011;2772;42.700;23.304;2023-08-08T10:08:03;4.60;;;4.17;;
5499;SDS011;2772;42.700;23.304;2023-08-08T10:10:31;7.33;;;3.60;;
5499;SDS011;2772;42.700;23.304;2023-08-08T10:13:00;31.77;;;3.23;;
5499;SDS011;2772;42.700;23.304;2023-08-08T10:15:27;6.13;;;3.50;;
5499;SDS011;2772;42.700;23.304;2023-08-08T10:17:55;7.70;;;4.50;;
5499;SDS011;2772;42.700;23.304;2023-08-08T10:20:23;6.00;;;4.10;;
5499;SDS011;2772;42.700;23.304;2023-08-08T10:22:52;3.83;;;3.47;;
5499;SDS011;2772;42.700;23.304;2023-08-08T10:25:22;6.07;;;3.93;;
5499;SDS011;2772;42.700;23.304;2023-08-08T10:27:50;3.27;;;3.10;;
5499;SDS011;2772;42.700;23.304;2023-08-08T10:30:30;3.40;;;3.20;;
5499;SDS011;2772;42.700;23.304;2023-08-08T10:33:14;9.73;;;3.20;;
5499;SDS011;2772;42.700;23.304;2023-08-08T10:35:49;5.13;;;4.60;;
5499;SDS011;2772;42.700;23.304;2023-08-08T10:38:19;5.20;;;4.47;;
5499;SDS011;2772;42.700;23.304;2023-08-08T10:40:53;3.33;;;3.03;;
5499;SDS011;2772;42.700;23.304;2023-08-08T10:43:25;7.30;;;3.50;;
5499;SDS011;2772;42.700;23.304;2023-08-08T10:45:56;2.67;;;2.53;;
5499;SDS011;2772;42.700;23.304;2023-08-08T10:48:23;3.67;;;3.40;;
5499;SDS011;2772;42.700;23.304;2023-08-08T10:50:53;3.03;;;2.83;;
5499;SDS011;2772;42.700;23.304;2023-08-08T10:53:22;6.60;;;3.03;;
5499;SDS011;2772;42.700;23.304;2023-08-08T10:55:56;2.47;;;2.37;;
5499;SDS011;2772;42.700;23.304;2023-08-08T10:58:33;3.60;;;2.50;;
5499;SDS011;2772;42.700;23.304;2023-08-08T11:01:03;4.17;;;3.20;;
5499;SDS011;2772;42.700;23.304;2023-08-08T11:03:33;4.53;;;2.70;;
5499;SDS011;2772;42.700;23.304;2023-08-08T11:06:01;9.30;;;3.30;;
5499;SDS011;2772;42.700;23.304;2023-08-08T11:08:29;6.20;;;3.83;;
5499;SDS011;2772;42.700;23.304;2023-08-08T11:10:57;5.20;;;3.40;;
5499;SDS011;2772;42.700;23.304;2023-08-08T11:13:24;2.97;;;2.67;;
5499;SDS011;2772;42.700;23.304;2023-08-08T11:15:50;6.03;;;3.63;;
5499;SDS011;2772;42.700;23.304;2023-08-08T11:18:19;6.90;;;2.47;;
5499;SDS011;2772;42.700;23.304;2023-08-08T11:20:46;2.90;;;2.70;;
5499;SDS011;2772;42.700;23.304;2023-08-08T11:23:13;9.13;;;2.67;;
5499;SDS011;2772;42.700;23.304;2023-08-08T11:25:41;4.13;;;2.80;;
5499;SDS011;2772;42.700;23.304;2023-08-08T11:28:09;3.40;;;3.10;;
5499;SDS011;2772;42.700;23.304;2023-08-08T11:30:36;2.73;;;2.53;;
5499;SDS011;2772;42.700;23.304;2023-08-08T11:33:05;6.03;;;3.23;;
5499;SDS011;2772;42.700;23.304;2023-08-08T11:35:33;2.63;;;2.43;;
5499;SDS011;2772;42.700;23.304;2023-08-08T11:38:00;4.47;;;3.93;;
5499;SDS011;2772;42.700;23.304;2023-08-08T11:40:29;2.83;;;2.40;;
5499;SDS011;2772;42.700;23.304;2023-08-08T11:42:57;9.07;;;6.47;;
5499;SDS011;2772;42.700;23.304;2023-08-08T11:45:25;2.93;;;2.73;;
5499;SDS011;2772;42.700;23.304;2023-08-08T11:47:52;2.63;;;2.43;;
5499;SDS011;2772;42.700;23.304;2023-08-08T11:50:21;3.23;;;3.00;;
5499;SDS011;2772;42.700;23.304;2023-08-08T11:52:51;4.90;;;2.60;;
5499;SDS011;2772;42.700;23.304;2023-08-08T11:55:19;2.40;;;2.30;;
5499;SDS011;2772;42.700;23.304;2023-08-08T11:57:47;3.07;;;2.83;;
5499;SDS011;2772;42.700;23.304;2023-08-08T12:00:15;2.50;;;2.23;;
5499;SDS011;2772;42.700;23.304;2023-08-08T12:02:43;2.67;;;2.43;;
5499;SDS011;2772;42.700;23.304;2023-08-08T12:05:10;8.00;;;3.17;;
5499;SDS011;2772;42.700;23.304;2023-08-08T12:07:39;10.00;;;7.82;;
5499;SDS011;2772;42.700;23.304;2023-08-08T12:10:14;2.67;;;2.50;;
5499;SDS011;2772;42.700;23.304;2023-08-08T12:12:42;2.33;;;2.23;;
5499;SDS011;2772;42.700;23.304;2023-08-08T12:15:09;2.67;;;2.47;;
5499;SDS011;2772;42.700;23.304;2023-08-08T12:17:37;3.40;;;3.10;;
5499;SDS011;2772;42.700;23.304;2023-08-08T12:20:04;3.10;;;2.93;;
5499;SDS011;2772;42.700;23.304;2023-08-08T12:22:32;8.10;;;4.50;;
5499;SDS011;2772;42.700;23.304;2023-08-08T12:24:59;4.73;;;2.70;;
5499;SDS011;2772;42.700;23.304;2023-08-08T12:27:28;11.17;;;8.00;;
5499;SDS011;2772;42.700;23.304;2023-08-08T12:29:55;2.83;;;2.63;;
5499;SDS011;2772;42.700;23.304;2023-08-08T12:32:24;7.70;;;2.57;;
5499;SDS011;2772;42.700;23.304;2023-08-08T12:34:53;3.53;;;2.07;;
5499;SDS011;2772;42.700;23.304;2023-08-08T12:37:21;3.77;;;3.40;;
5499;SDS011;2772;42.700;23.304;2023-08-08T12:39:48;3.63;;;2.87;;
5499;SDS011;2772;42.700;23.304;2023-08-08T12:42:15;2.70;;;2.50;;
5499;SDS011;2772;42.700;23.304;2023-08-08T12:44:43;4.00;;;3.20;;
5499;SDS011;2772;42.700;23.304;2023-08-08T12:47:11;3.50;;;2.30;;
5499;SDS011;2772;42.700;23.304;2023-08-08T12:49:38;2.63;;;2.43;;
5499;SDS011;2772;42.700;23.304;2023-08-08T12:52:05;2.60;;;2.40;;
5499;SDS011;2772;42.700;23.304;2023-08-08T12:54:32;3.30;;;2.57;;
5499;SDS011;2772;42.700;23.304;2023-08-08T12:56:59;2.87;;;2.70;;
5499;SDS011;2772;42.700;23.304;2023-08-08T12:59:26;5.63;;;2.17;;
5499;SDS011;2772;42.700;23.304;2023-08-08T13:01:54;2.30;;;2.10;;
5499;SDS011;2772;42.700;23.304;2023-08-08T13:04:21;3.10;;;2.80;;
5499;SDS011;2772;42.700;23.304;2023-08-08T13:06:48;4.43;;;2.30;;
5499;SDS011;2772;42.700;23.304;2023-08-08T13:09:15;3.43;;;2.17;;
5499;SDS011;2772;42.700;23.304;2023-08-08T13:11:41;2.60;;;2.40;;
5499;SDS011;2772;42.700;23.304;2023-08-08T13:14:08;4.07;;;2.50;;
5499;SDS011;2772;42.700;23.304;2023-08-08T13:16:35;2.07;;;1.97;;
5499;SDS011;2772;42.700;23.304;2023-08-08T13:19:03;5.70;;;2.50;;
5499;SDS011;2772;42.700;23.304;2023-08-08T13:21:30;7.10;;;2.70;;
5499;SDS011;2772;42.700;23.304;2023-08-08T13:23:57;2.40;;;2.30;;
5499;SDS011;2772;42.700;23.304;2023-08-08T13:26:24;2.47;;;2.27;;
5499;SDS011;2772;42.700;23.304;2023-08-08T13:28:51;2.90;;;2.70;;
5499;SDS011;2772;42.700;23.304;2023-08-08T13:31:18;3.83;;;2.87;;
5499;SDS011;2772;42.700;23.304;2023-08-08T13:33:44;3.00;;;2.80;;
5499;SDS011;2772;42.700;23.304;2023-08-08T13:36:13;3.90;;;2.60;;
5499;SDS011;2772;42.700;23.304;2023-08-08T13:38:39;3.20;;;2.03;;
5499;SDS011;2772;42.700;23.304;2023-08-08T13:41:06;2.20;;;2.10;;
5499;SDS011;2772;42.700;23.304;2023-08-08T13:43:33;5.87;;;2.53;;
5499;SDS011;2772;42.700;23.304;2023-08-08T13:46:00;3.43;;;2.37;;
5499;SDS011;2772;42.700;23.304;2023-08-08T13:48:28;3.03;;;2.70;;
5499;SDS011;2772;42.700;23.304;2023-08-08T13:50:55;2.40;;;2.20;;
5499;SDS011;2772;42.700;23.304;2023-08-08T13:53:23;3.27;;;2.90;;
5499;SDS011;2772;42.700;23.304;2023-08-08T13:55:50;4.20;;;2.50;;
5499;SDS011;2772;42.700;23.304;2023-08-08T13:58:17;6.90;;;2.50;;
5499;SDS011;2772;42.700;23.304;2023-08-08T14:00:47;2.33;;;2.13;;
5499;SDS011;2772;42.700;23.304;2023-08-08T14:03:13;2.67;;;2.47;;
5499;SDS011;2772;42.700;23.304;2023-08-08T14:05:40;2.77;;;2.57;;
5499;SDS011;2772;42.700;23.304;2023-08-08T14:08:08;2.20;;;2.03;;
5499;SDS011;2772;42.700;23.304;2023-08-08T14:10:36;2.70;;;2.50;;
5499;SDS011;2772;42.700;23.304;2023-08-08T14:13:03;2.73;;;2.53;;
5499;SDS011;2772;42.700;23.304;2023-08-08T14:15:30;2.60;;;2.40;;
5499;SDS011;2772;42.700;23.304;2023-08-08T14:17:58;3.80;;;2.50;;
5499;SDS011;2772;42.700;23.304;2023-08-08T14:20:25;2.30;;;2.20;;
5499;SDS011;2772;42.700;23.304;2023-08-08T14:22:52;2.23;;;2.13;;
5499;SDS011;2772;42.700;23.304;2023-08-08T14:25:19;2.73;;;2.53;;
5499;SDS011;2772;42.700;23.304;2023-08-08T14:27:47;2.80;;;2.60;;
5499;SDS011;2772;42.700;23.304;2023-08-08T14:30:14;5.93;;;2.73;;
5499;SDS011;2772;42.700;23.304;2023-08-08T14:32:41;3.93;;;2.23;;
5499;SDS011;2772;42.700;23.304;2023-08-08T14:35:08;2.40;;;2.30;;
5499;SDS011;2772;42.700;23.304;2023-08-08T14:37:35;2.53;;;2.33;;
5499;SDS011;2772;42.700;23.304;2023-08-08T14:40:03;5.90;;;2.67;;
5499;SDS011;2772;42.700;23.304;2023-08-08T14:42:30;2.37;;;2.27;;
5499;SDS011;2772;42.700;23.304;2023-08-08T14:44:59;2.70;;;2.50;;
5499;SDS011;2772;42.700;23.304;2023-08-08T14:47:25;2.53;;;2.37;;
5499;SDS011;2772;42.700;23.304;2023-08-08T14:49:52;6.57;;;3.33;;
5499;SDS011;2772;42.700;23.304;2023-08-08T14:52:20;4.67;;;2.90;;
5499;SDS011;2772;42.700;23.304;2023-08-08T14:54:47;4.33;;;3.63;;
5499;SDS011;2772;42.700;23.304;2023-08-08T14:57:14;5.13;;;2.10;;
5499;SDS011;2772;42.700;23.304;2023-08-08T14:59:41;3.83;;;3.27;;
5499;SDS011;2772;42.700;23.304;2023-08-08T15:02:10;2.83;;;2.33;;
5499;SDS011;2772;42.700;23.304;2023-08-08T15:04:36;2.67;;;2.47;;
5499;SDS011;2772;42.700;23.304;2023-08-08T15:07:03;3.27;;;3.00;;
5499;SDS011;2772;42.700;23.304;2023-08-08T15:09:30;2.47;;;2.37;;
5499;SDS011;2772;42.700;23.304;2023-08-08T15:11:59;2.57;;;2.47;;
5499;SDS011;2772;42.700;23.304;2023-08-08T15:14:26;4.73;;;2.77;;
5499;SDS011;2772;42.700;23.304;2023-08-08T15:16:53;2.70;;;2.33;;
5499;SDS011;2772;42.700;23.304;2023-08-08T15:19:21;3.30;;;2.33;;
5499;SDS011;2772;42.700;23.304;2023-08-08T15:21:48;3.20;;;2.57;;
5499;SDS011;2772;42.700;23.304;2023-08-08T15:24:15;3.97;;;2.40;;
5499;SDS011;2772;42.700;23.304;2023-08-08T15:26:42;8.57;;;2.10;;
5499;SDS011;2772;42.700;23.304;2023-08-08T15:29:08;6.07;;;3.13;;
5499;SDS011;2772;42.700;23.304;2023-08-08T15:31:35;2.30;;;2.20;;
5499;SDS011;2772;42.700;23.304;2023-08-08T15:34:02;2.60;;;2.40;;